Time;durP1;ratioP1;P1;durP2;ratioP2;P2;SDS_P1;SDS_P2;PMS_P1;PMS_P2;Temp;Humidity;BMP_temperature;BMP_pressure;BME280_temperature;BME280_humidity;BME280_pressure;Samples;Min_cycle;Max_cycle;Signal;HPM_P1;HPM_P2
2022/12/30 00:01:04;;;;;;;16.67;4.25;;;;;;;5.42;100.00;100737.47;5013098;28;20454;-62
2022/12/30 00:03:29;;;;;;;21.05;3.97;;;;;;;5.03;100.00;100663.16;5013486;28;20109;-61
2022/12/30 00:05:54;;;;;;;16.02;3.00;;;;;;;5.39;100.00;100735.78;5013450;28;20541;-60
2022/12/30 00:11:04;;;;;;;19.15;4.30;;;;;;;5.25;100.00;100702.91;5013250;28;20056;-62
2022/12/30 00:33:08;;;;;;;18.33;2.67;;;;;;;5.46;100.00;100720.88;4997909;28;20052;-61
2022/12/30 00:35:38;;;;;;;16.60;3.28;;;;;;;4.98;100.00;100649.31;5012376;28;20450;-61
2022/12/30 00:38:04;;;;;;;16.35;2.50;;;;;;;5.03;100.00;100669.25;4994827;28;20045;-61
2022/12/30 00:40:29;;;;;;;9.75;2.90;;;;;;;4.82;100.00;100646.03;5012566;28;20070;-62
2022/12/30 00:43:10;;;;;;;20.45;4.15;;;;;;;5.33;100.00;100737.59;4994903;28;20073;-62
2022/12/30 00:45:38;;;;;;;13.93;3.08;;;;;;;5.40;100.00;100765.34;5012619;28;20038;-62
2022/12/30 00:56:15;;;;;;;14.93;3.30;;;;;;;5.25;100.00;100763.78;4997540;28;20053;-61
2022/12/30 00:58:41;;;;;;;16.17;3.70;;;;;;;5.25;100.00;100769.00;5012233;28;20041;-62
2022/12/30 01:01:06;;;;;;;16.13;3.28;;;;;;;5.25;100.00;100766.41;5012240;28;20049;-62
2022/12/30 01:03:31;;;;;;;23.55;3.83;;;;;;;4.79;100.00;100682.56;4994881;28;20476;-62
2022/12/30 01:05:57;;;;;;;18.50;3.75;;;;;;;5.11;100.00;100747.41;4994693;28;20065;-62
2022/12/30 01:08:22;;;;;;;18.90;3.50;;;;;;;5.24;100.00;100771.63;5012187;28;20036;-62
2022/12/30 01:10:47;;;;;;;15.98;3.47;;;;;;;4.82;100.00;100705.13;5012187;28;20034;-62
2022/12/30 01:13:13;;;;;;;15.73;3.53;;;;;;;5.16;100.00;100779.56;5011878;28;20038;-62
2022/12/30 01:15:38;;;;;;;17.52;3.20;;;;;;;4.77;100.00;100693.91;4994306;28;20038;-61
2022/12/30 01:18:04;;;;;;;21.30;3.00;;;;;;;5.24;100.00;100774.22;5012066;28;20042;-62
2022/12/30 01:20:29;;;;;;;17.63;3.20;;;;;;;5.22;100.00;100789.06;5011844;28;20030;-61
2022/12/30 01:22:54;;;;;;;15.20;3.42;;;;;;;5.20;100.00;100775.13;5012009;28;20117;-61
2022/12/30 01:25:20;;;;;;;16.73;2.97;;;;;;;5.25;100.00;100774.22;5011603;28;20476;-61
2022/12/30 01:27:51;;;;;;;16.40;2.80;;;;;;;5.24;100.00;100769.88;5011490;28;20042;-61
2022/12/30 01:30:16;;;;;;;;;;;;;;;5.22;100.00;100782.09;4994593;28;20469;-61
2022/12/30 01:32:41;;;;;;;20.00;3.17;;;;;;;5.26;100.00;100780.28;5011933;28;20038;-61
2022/12/30 01:35:07;;;;;;;12.93;2.70;;;;;;;5.28;100.00;100784.63;5011752;28;20767;-61
2022/12/30 01:37:33;;;;;;;13.75;3.40;;;;;;;5.29;100.00;100783.72;5012077;28;20038;-62
2022/12/30 01:39:58;;;;;;;22.63;3.25;;;;;;;5.35;100.00;100774.97;5014154;28;20057;-61
2022/12/30 01:42:29;;;;;;;14.07;3.35;;;;;;;4.93;100.00;100704.13;5015787;28;20064;-60
2022/12/30 01:44:56;;;;;;;15.27;2.88;;;;;;;5.34;100.00;100768.03;5016192;28;20041;-62
2022/12/30 01:47:29;;;;;;;15.38;2.95;;;;;;;5.44;100.00;100778.31;5015794;28;20045;-61
2022/12/30 01:50:00;;;;;;;13.05;2.63;;;;;;;5.00;100.00;100699.72;5015878;28;20113;-61
2022/12/30 01:52:25;;;;;;;12.35;2.85;;;;;;;4.53;100.00;100645.50;5015875;28;20370;-61
2022/12/30 01:54:54;;;;;;;15.90;2.92;;;;;;;4.87;100.00;100690.31;4998241;28;20045;-64
2022/12/30 01:57:20;;;;;;;15.07;2.78;;;;;;;4.75;100.00;100686.13;5015414;28;20026;-61
2022/12/30 01:59:45;;;;;;;12.23;2.88;;;;;;;5.08;100.00;100740.47;5015860;28;20037;-61
2022/12/30 02:02:11;;;;;;;12.70;2.85;;;;;;;4.76;100.00;100682.59;4997037;28;20042;-61
2022/12/30 02:04:36;;;;;;;19.27;3.05;;;;;;;5.06;100.00;100731.81;4998020;28;20450;-62
2022/12/30 02:07:18;;;;;;;16.33;3.72;;;;;;;5.18;100.00;100753.44;5014970;28;20414;-61
2022/12/30 02:09:44;;;;;;;18.95;3.15;;;;;;;5.12;100.00;100754.38;5015461;28;20068;-61
2022/12/30 02:12:11;;;;;;;16.38;2.85;;;;;;;5.11;100.00;100773.50;5015344;28;20070;-61
2022/12/30 02:14:37;;;;;;;14.43;2.97;;;;;;;5.14;100.00;100746.53;4998188;28;20025;-62
2022/12/30 02:17:21;;;;;;;16.23;3.95;;;;;;;5.14;100.00;100751.75;4981084;28;20133;-62
2022/12/30 02:19:52;;;;;;;18.45;3.03;;;;;;;5.07;100.00;100756.16;5015525;28;20044;-61
2022/12/30 02:22:38;;;;;;;15.80;3.25;;;;;;;5.11;100.00;100750.00;5015329;28;20164;-62
2022/12/30 02:25:25;;;;;;;17.42;3.13;;;;;;;5.18;100.00;100763.84;5015026;28;20495;-62
2022/12/30 02:28:08;;;;;;;17.98;3.90;;;;;;;5.17;100.00;100770.81;5014910;28;20315;-62
2022/12/30 02:30:56;;;;;;;19.25;3.60;;;;;;;5.16;100.00;100756.06;5014559;28;20613;-63
2022/12/30 02:33:40;;;;;;;14.50;2.95;;;;;;;5.15;100.00;100756.94;4999479;28;20111;-63
2022/12/30 02:36:14;;;;;;;11.73;3.08;;;;;;;5.03;100.00;100739.69;5014335;28;20119;-62
2022/12/30 02:38:55;;;;;;;12.73;3.20;;;;;;;4.80;100.00;100696.47;4997068;28;20034;-61
2022/12/30 02:44:37;;;;;;;11.40;3.30;;;;;;;4.67;100.00;100674.88;5015028;28;20041;-62
2022/12/30 02:47:09;;;;;;;16.90;3.63;;;;;;;4.60;100.00;100662.81;5014316;28;20068;-61
2022/12/30 02:49:36;;;;;;;19.15;4.05;;;;;;;4.58;100.00;100661.09;4996774;28;20080;-61
2022/12/30 02:52:14;;;;;;;18.05;3.83;;;;;;;4.54;100.00;100660.28;4996095;28;20038;-62
2022/12/30 02:54:46;;;;;;;12.85;3.58;;;;;;;5.05;100.00;100742.25;5014589;28;20042;-63
2022/12/30 02:57:30;;;;;;;21.67;4.32;;;;;;;5.09;100.00;100736.13;5014339;28;20084;-61
2022/12/30 03:05:54;;;;;;;18.83;4.47;;;;;;;5.09;100.00;100741.34;4977048;28;20045;-61
2022/12/30 03:08:28;;;;;;;;;;;;;;;5.08;100.00;100740.47;5014397;28;20160;-61
2022/12/30 03:11:19;;;;;;;11.88;3.50;;;;;;;5.04;100.00;100741.41;5014221;28;19964;-60
2022/12/30 03:14:06;;;;;;;13.10;4.35;;;;;;;5.03;100.00;100736.19;5009382;28;20030;-62
2022/12/30 03:16:38;;;;;;;16.70;3.60;;;;;;;4.98;100.00;100735.41;5012851;28;20029;-62
2022/12/30 03:19:06;;;;;;;12.85;3.65;;;;;;;4.48;100.00;100650.78;4996368;28;20124;-61
2022/12/30 03:21:34;;;;;;;11.50;3.22;;;;;;;4.80;100.00;100720.81;5013772;28;20549;-61
2022/12/30 03:27:05;;;;;;;18.40;3.88;;;;;;;4.31;100.00;100641.41;4999021;28;20532;-61
2022/12/30 03:29:46;;;;;;;8.95;3.40;;;;;;;4.69;100.00;100724.41;5014173;28;20516;-61
2022/12/30 03:32:13;;;;;;;11.68;3.75;;;;;;;4.24;100.00;100642.31;5013973;28;20040;-61
2022/12/30 03:34:39;;;;;;;18.38;4.60;;;;;;;4.48;100.00;100710.72;4996167;28;20049;-62
2022/12/30 03:37:26;;;;;;;20.27;4.40;;;;;;;4.61;100.00;100721.03;5013180;28;20034;-62
2022/12/30 03:39:58;;;;;;;18.77;4.38;;;;;;;4.57;100.00;100730.63;4995983;28;20049;-62
2022/12/30 03:42:23;;;;;;;;;;;;;;;4.57;100.00;100717.59;4996457;28;20057;-62
2022/12/30 03:44:49;;;;;;;19.80;3.95;;;;;;;4.48;100.00;100715.94;5013627;28;20376;-61
2022/12/30 03:47:16;;;;;;;24.88;4.60;;;;;;;4.29;100.00;100674.44;4995915;28;20026;-62
2022/12/30 03:49:42;;;;;;;21.65;4.60;;;;;;;3.92;100.00;100621.78;4995790;28;20065;-62
2022/12/30 03:52:14;;;;;;;21.30;4.45;;;;;;;4.34;100.00;100694.34;5013099;28;20117;-62
2022/12/30 03:54:42;;;;;;;18.50;3.92;;;;;;;4.38;100.00;100705.59;4996975;28;20041;-62
2022/12/30 03:57:08;;;;;;;13.00;3.58;;;;;;;4.27;100.00;100677.03;4996952;28;20049;-61
2022/12/30 03:59:33;;;;;;;18.70;4.13;;;;;;;4.49;100.00;100709.81;5013758;28;20053;-62
2022/12/30 04:01:59;;;;;;;12.52;3.90;;;;;;;4.12;100.00;100640.72;5012602;28;20041;-61
2022/12/30 04:04:24;;;;;;;13.93;3.72;;;;;;;4.59;100.00;100717.56;5012967;28;20045;-63
2022/12/30 04:06:50;;;;;;;14.82;4.25;;;;;;;4.13;100.00;100632.03;5012773;28;20044;-62
2022/12/30 04:09:15;;;;;;;12.00;3.85;;;;;;;4.44;100.00;100688.16;4995647;28;20033;-62
2022/12/30 04:11:40;;;;;;;23.45;4.25;;;;;;;4.52;100.00;100724.59;5013226;28;20091;-62
2022/12/30 04:14:06;;;;;;;17.05;3.83;;;;;;;4.49;100.00;100701.16;5013028;28;20324;-62
2022/12/30 04:16:31;;;;;;;17.60;4.70;;;;;;;4.43;100.00;100711.66;5012790;28;20433;-62
2022/12/30 04:18:56;;;;;;;15.50;3.75;;;;;;;4.39;100.00;100695.16;4994857;28;20030;-62
2022/12/30 04:21:22;;;;;;;18.58;3.92;;;;;;;4.25;100.00;100675.34;5013054;28;20065;-63
2022/12/30 04:23:47;;;;;;;14.70;4.15;;;;;;;4.28;100.00;100709.19;5013131;28;20073;-62
2022/12/30 04:26:13;;;;;;;17.10;4.47;;;;;;;4.29;100.00;100705.69;5013072;28;20034;-62
2022/12/30 04:28:38;;;;;;;17.20;3.35;;;;;;;4.28;100.00;100703.97;5012776;28;20477;-63
2022/12/30 04:31:04;;;;;;;12.43;3.65;;;;;;;4.16;100.00;100685.84;5013021;28;20469;-63
2022/12/30 04:33:29;;;;;;;18.35;4.38;;;;;;;3.72;100.00;100619.38;4995208;28;20041;-62
2022/12/30 04:35:54;;;;;;;17.70;3.78;;;;;;;3.84;100.00;100623.59;5012629;28;20072;-64
2022/12/30 04:38:20;;;;;;;21.17;3.90;;;;;;;4.19;100.00;100675.38;5012359;28;20117;-63
2022/12/30 04:40:45;;;;;;;17.77;4.03;;;;;;;3.83;100.00;100625.34;4994037;28;20400;-64
2022/12/30 04:43:11;;;;;;;20.58;4.65;;;;;;;4.18;100.00;100711.00;5012387;28;20096;-62
2022/12/30 04:45:36;;;;;;;13.48;3.85;;;;;;;4.16;100.00;100675.41;5012729;28;20037;-62
2022/12/30 04:48:01;;;;;;;14.98;3.95;;;;;;;3.86;100.00;100608.84;5012339;28;20041;-62
2022/12/30 04:50:26;;;;;;;12.30;3.63;;;;;;;4.39;100.00;100674.31;5012170;28;20171;-63
2022/12/30 04:52:52;;;;;;;8.55;3.63;;;;;;;3.88;100.00;100579.28;5012302;28;20461;-63
2022/12/30 04:55:17;;;;;;;14.57;3.50;;;;;;;3.98;100.00;100603.50;4995100;28;20662;-64
2022/12/30 04:57:43;;;;;;;15.10;4.15;;;;;;;3.94;100.00;100602.69;5011900;28;20045;-62
2022/12/30 05:00:09;;;;;;;12.95;4.30;;;;;;;4.36;100.00;100670.88;5012204;28;20050;-63
2022/12/30 05:02:35;;;;;;;14.55;3.90;;;;;;;4.18;100.00;100634.56;5012003;28;20042;-63
2022/12/30 05:05:00;;;;;;;17.42;4.07;;;;;;;4.41;100.00;100674.28;4994802;28;20064;-65
2022/12/30 05:07:26;;;;;;;15.15;3.78;;;;;;;4.36;100.00;100655.25;5012137;28;20044;-63
2022/12/30 05:09:51;;;;;;;12.77;3.75;;;;;;;3.91;100.00;100570.63;5012632;28;20045;-62
2022/12/30 05:12:17;;;;;;;14.00;3.47;;;;;;;4.49;100.00;100667.28;4994717;28;20378;-64
2022/12/30 05:14:42;;;;;;;15.65;4.03;;;;;;;4.46;100.00;100682.94;5011530;28;20473;-63
2022/12/30 05:17:07;;;;;;;17.25;4.38;;;;;;;4.26;100.00;100651.00;4990113;28;20374;-62
2022/12/30 05:19:33;;;;;;;18.60;3.65;;;;;;;4.44;100.00;100669.06;5011631;28;20042;-63
2022/12/30 05:21:58;;;;;;;12.20;3.65;;;;;;;4.49;100.00;100678.53;5012226;28;20076;-63
2022/12/30 05:27:07;;;;;;;15.27;3.33;;;;;;;4.01;100.00;100595.69;5011645;28;20045;-62
2022/12/30 05:29:33;;;;;;;11.80;3.83;;;;;;;4.40;100.00;100672.59;4994339;28;20081;-62
2022/12/30 05:31:58;;;;;;;20.30;4.90;;;;;;;4.34;100.00;100667.44;5011641;28;20116;-62
2022/12/30 05:34:23;;;;;;;17.60;3.65;;;;;;;3.65;100.00;100554.38;5011921;28;20046;-62
2022/12/30 05:36:49;;;;;;;12.80;3.95;;;;;;;4.29;100.00;100656.19;5012093;28;20101;-62
2022/12/30 05:39:14;;;;;;;14.40;3.72;;;;;;;3.93;100.00;100585.34;5011908;28;20050;-62
2022/12/30 05:41:40;;;;;;;15.82;4.00;;;;;;;4.28;100.00;100644.03;4994356;28;20034;-62
2022/12/30 05:44:05;;;;;;;15.27;4.40;;;;;;;4.12;100.00;100622.47;5011680;28;20041;-62
2022/12/30 05:46:31;;;;;;;7.63;3.30;;;;;;;4.18;100.00;100619.81;4994314;28;20396;-62
2022/12/30 05:48:56;;;;;;;14.60;4.30;;;;;;;4.22;100.00;100626.72;4994041;28;20040;-62
2022/12/30 05:51:22;;;;;;;14.60;4.03;;;;;;;4.00;100.00;100600.91;5011744;28;20034;-62
2022/12/30 05:53:47;;;;;;;15.63;4.25;;;;;;;4.18;100.00;100639.78;5011683;28;20042;-62
2022/12/30 05:56:13;;;;;;;15.55;4.82;;;;;;;4.14;100.00;100633.75;5011855;28;20137;-62
2022/12/30 05:58:38;;;;;;;18.95;4.35;;;;;;;4.09;100.00;100640.72;4993616;28;20500;-62
2022/12/30 06:01:03;;;;;;;12.68;3.92;;;;;;;3.44;100.00;100537.19;5010882;28;20036;-62
2022/12/30 06:03:30;;;;;;;22.42;5.95;;;;;;;2.44;100.00;100366.38;4994092;28;20038;-62
2022/12/30 06:06:04;;;;;;;17.67;4.88;;;;;;;3.15;100.00;100488.00;4994452;28;20468;-63
2022/12/30 06:08:29;;;;;;;12.57;3.83;;;;;;;3.82;100.00;100617.56;4993961;28;20481;-62
2022/12/30 06:10:55;;;;;;;20.67;5.03;;;;;;;3.53;100.00;100557.06;5011138;28;20076;-62
2022/12/30 06:13:20;;;;;;;14.50;4.22;;;;;;;3.44;100.00;100537.19;5011541;28;20042;-62
2022/12/30 06:15:46;;;;;;;13.43;5.45;;;;;;;3.93;100.00;100628.75;4977782;28;20026;-62
2022/12/30 06:18:11;;;;;;;20.98;5.22;;;;;;;3.74;100.00;100594.19;5011414;28;20057;-63
2022/12/30 06:20:36;;;;;;;19.63;4.50;;;;;;;3.85;100.00;100620.97;5011526;28;20033;-61
2022/12/30 06:23:03;;;;;;;19.42;5.15;;;;;;;3.51;100.00;100546.66;5010773;28;20037;-62
2022/12/30 06:25:29;;;;;;;17.48;4.90;;;;;;;3.61;100.00;100563.06;4995358;28;20026;-62
2022/12/30 06:27:54;;;;;;;17.25;5.05;;;;;;;3.74;100.00;100581.16;5014559;28;20030;-62
2022/12/30 06:30:19;;;;;;;22.88;5.60;;;;;;;3.82;100.00;100596.75;5014618;28;20049;-62
2022/12/30 06:32:45;;;;;;;21.45;5.25;;;;;;;3.36;100.00;100521.63;5014814;28;20131;-62
2022/12/30 06:35:10;;;;;;;25.83;6.32;;;;;;;3.80;100.00;100599.34;5015343;28;20034;-62
2022/12/30 06:37:36;;;;;;;21.92;5.60;;;;;;;3.24;100.00;100500.09;5014618;28;20042;-62
2022/12/30 06:40:01;;;;;;;22.50;6.85;;;;;;;3.36;100.00;100510.34;4993764;28;20051;-62
2022/12/30 06:42:26;;;;;;;19.15;5.65;;;;;;;3.81;100.00;100579.38;4993823;28;20536;-61
2022/12/30 06:44:52;;;;;;;17.02;5.80;;;;;;;3.21;100.00;100476.69;4995125;28;20046;-61
2022/12/30 06:47:17;;;;;;;24.80;5.43;;;;;;;3.75;100.00;100571.63;4994123;28;20038;-62
2022/12/30 06:49:43;;;;;;;19.17;5.50;;;;;;;3.37;100.00;100504.28;4994740;28;20047;-62
2022/12/30 06:52:08;;;;;;;20.02;5.70;;;;;;;3.74;100.00;100569.88;4995084;28;20042;-64
2022/12/30 06:54:33;;;;;;;20.73;5.72;;;;;;;3.66;100.00;100551.75;4994815;28;20043;-63
2022/12/30 06:56:58;;;;;;;20.95;5.50;;;;;;;3.76;100.00;100562.94;4994394;28;20042;-63
2022/12/30 06:59:24;;;;;;;19.15;4.95;;;;;;;3.76;100.00;100568.16;4994574;28;20103;-63
2022/12/30 07:01:49;;;;;;;16.50;5.88;;;;;;;3.70;100.00;100545.66;4994756;28;20444;-62
2022/12/30 07:04:14;;;;;;;20.30;6.75;;;;;;;3.20;100.00;100460.22;4994917;28;20529;-60
2022/12/30 07:06:40;;;;;;;16.73;5.40;;;;;;;3.67;100.00;100544.81;4994411;28;20489;-63
2022/12/30 07:09:05;;;;;;;16.15;5.07;;;;;;;3.15;100.00;100448.13;4994785;28;20474;-62
2022/12/30 07:11:30;;;;;;;25.00;5.38;;;;;;;3.56;100.00;100526.66;4995009;28;20462;-62
2022/12/30 07:13:56;;;;;;;20.00;5.22;;;;;;;3.67;100.00;100535.25;4994667;28;20215;-62
2022/12/30 07:16:21;;;;;;;18.05;5.45;;;;;;;3.61;100.00;100503.22;4994165;28;20042;-63
2022/12/30 07:18:46;;;;;;;20.50;4.90;;;;;;;3.45;100.00;100484.28;4994423;28;20081;-62
2022/12/30 07:21:12;;;;;;;17.70;4.70;;;;;;;3.74;100.00;100508.28;4994201;28;20034;-62
2022/12/30 07:23:37;;;;;;;21.92;5.03;;;;;;;3.73;100.00;100495.28;4994274;28;20043;-62
2022/12/30 07:26:02;;;;;;;18.23;4.85;;;;;;;3.74;100.00;100502.19;4994653;28;20031;-62
2022/12/30 07:28:28;;;;;;;19.25;5.20;;;;;;;3.68;100.00;100479.69;4993663;28;20493;-63
2022/12/30 07:30:53;;;;;;;18.05;5.45;;;;;;;3.63;100.00;100467.63;4994726;28;20462;-62
2022/12/30 07:33:18;;;;;;;14.88;4.57;;;;;;;3.71;100.00;100469.25;4992952;28;20545;-63
2022/12/30 07:35:44;;;;;;;22.70;5.60;;;;;;;3.80;100.00;100482.19;4993982;28;20037;-63
2022/12/30 07:38:09;;;;;;;17.88;5.22;;;;;;;3.33;100.00;100389.00;4993333;28;20040;-62
2022/12/30 07:40:36;;;;;;;15.48;5.22;;;;;;;3.56;100.00;100411.31;4992650;28;20054;-63
2022/12/30 07:43:02;;;;;;;14.63;4.90;;;;;;;3.45;100.00;100390.59;4993418;28;20527;-63
2022/12/30 07:45:28;;;;;;;15.93;5.20;;;;;;;3.50;100.00;100404.44;4993883;28;20034;-62
2022/12/30 07:47:53;;;;;;;20.23;6.10;;;;;;;3.84;100.00;100447.44;4993691;28;20042;-62
2022/12/30 07:50:19;;;;;;;17.23;6.32;;;;;;;3.63;100.00;100389.53;4993344;28;20038;-63
2022/12/30 07:52:44;;;;;;;15.13;6.10;;;;;;;4.12;100.00;100479.22;4994083;28;20039;-63
2022/12/30 07:55:09;;;;;;;17.60;6.88;;;;;;;3.65;100.00;100380.84;4993717;28;20034;-62
2022/12/30 07:57:35;;;;;;;13.85;6.82;;;;;;;4.20;100.00;100453.09;4993251;28;20497;-62
2022/12/30 08:00:00;;;;;;;19.35;7.97;;;;;;;4.34;100.00;100458.97;4993270;28;20113;-63
2022/12/30 08:02:26;;;;;;;17.25;6.80;;;;;;;4.29;100.00;100429.53;4993881;28;20532;-63
2022/12/30 08:04:51;;;;;;;18.48;7.47;;;;;;;4.39;100.00;100441.53;4992559;28;20453;-62
2022/12/30 08:07:18;;;;;;;20.23;7.30;;;;;;;4.52;100.00;100450.91;4992054;28;20533;-63
2022/12/30 08:09:43;;;;;;;22.35;7.45;;;;;;;4.56;100.00;100460.41;4992117;28;20118;-62
2022/12/30 08:12:09;;;;;;;22.75;7.93;;;;;;;4.13;100.00;100355.06;4993430;28;20113;-63
2022/12/30 08:14:34;;;;;;;22.52;8.30;;;;;;;4.09;100.00;100330.78;4992382;28;20069;-61
2022/12/30 08:17:00;;;;;;;18.75;7.90;;;;;;;4.71;100.00;100438.47;4992794;28;20085;-61
2022/12/30 08:19:27;;;;;;;17.05;7.43;;;;;;;4.68;100.00;100420.25;4993343;28;20034;-61
2022/12/30 08:21:52;;;;;;;16.85;7.30;;;;;;;4.76;100.00;100436.66;4993575;28;20038;-61
2022/12/30 08:24:18;;;;;;;11.68;7.05;;;;;;;4.79;100.00;100423.56;4991553;28;20035;-61
2022/12/30 08:26:43;;;;;;;15.75;8.40;;;;;;;4.83;100.00;100428.72;4991911;28;20112;-62
2022/12/30 08:29:08;;;;;;;15.38;6.30;;;;;;;4.83;100.00;100401.78;4992603;28;20142;-63
2022/12/30 08:31:33;;;;;;;18.73;7.25;;;;;;;4.53;100.00;100341.41;4991830;28;20077;-61
2022/12/30 08:33:59;;;;;;;20.92;7.10;;;;;;;4.62;100.00;100360.38;4993069;28;20096;-63
2022/12/30 08:36:27;;;;;;;17.02;7.07;;;;;;;5.17;100.00;100421.19;4992871;28;20038;-62
2022/12/30 08:38:54;;;;;;;17.42;6.55;;;;;;;5.22;100.00;100439.41;4991207;28;20139;-63
2022/12/30 08:41:26;;;;;;;11.73;5.78;;;;;;;5.19;100.00;100434.22;4992833;28;20134;-63
2022/12/30 08:43:51;;;;;;;;;;;;;;;5.30;100.00;100416.63;4993035;28;20120;-61
2022/12/30 08:46:18;;;;;;;14.18;5.97;;;;;;;5.37;100.00;100410.44;4993367;28;19956;-61
2022/12/30 08:48:43;;;;;;;13.38;5.82;;;;;;;5.03;100.00;100337.09;4992800;28;20452;-62
2022/12/30 08:51:09;;;;;;;19.38;6.18;;;;;;;5.31;100.00;100382.66;4991189;28;20113;-63
2022/12/30 08:53:35;;;;;;;16.00;6.78;;;;;;;5.50;100.00;100394.50;4991364;28;20035;-62
2022/12/30 08:56:04;;;;;;;10.77;5.53;;;;;;;5.45;100.00;100375.47;4991254;28;20053;-62
2022/12/30 08:58:30;;;;;;;15.73;5.50;;;;;;;5.09;100.00;100305.69;4991292;28;20347;-63
2022/12/30 09:00:55;;;;;;;15.57;5.13;;;;;;;5.16;100.00;100324.69;4991182;28;20074;-61
2022/12/30 09:03:21;;;;;;;10.25;4.97;;;;;;;5.59;100.00;100394.34;4992533;28;20130;-62
2022/12/30 09:05:54;;;;;;;10.15;4.60;;;;;;;5.11;100.00;100293.47;4992125;28;20410;-62
2022/12/30 09:08:20;;;;;;;12.70;4.70;;;;;;;5.61;100.00;100374.25;4991135;28;20040;-64
2022/12/30 09:11:14;;;;;;;11.05;4.40;;;;;;;5.63;100.00;100372.47;4991074;28;20470;-61
2022/12/30 09:13:40;;;;;;;13.27;5.00;;;;;;;5.25;100.00;100295.84;4990793;28;20084;-62
2022/12/30 09:16:08;;;;;;;7.35;3.80;;;;;;;5.67;100.00;100363.69;4974670;28;20062;-62
2022/12/30 09:18:34;;;;;;;12.25;5.38;;;;;;;5.28;100.00;100278.38;4992126;28;20046;-62
2022/12/30 09:20:59;;;;;;;10.27;4.53;;;;;;;5.29;100.00;100287.91;4992095;28;20105;-61
2022/12/30 09:23:24;;;;;;;13.40;3.65;;;;;;;5.75;100.00;100352.25;4992002;28;20061;-62
2022/12/30 09:25:50;;;;;;;9.63;3.80;;;;;;;5.47;100.00;100303.19;4992504;28;20038;-62
2022/12/30 09:28:15;;;;;;;9.93;3.47;;;;;;;5.34;100.00;100265.16;4992025;28;20070;-62
2022/12/30 09:30:41;;;;;;;13.20;4.78;;;;;;;5.62;100.00;100296.81;4990732;28;20602;-61
2022/12/30 09:33:07;;;;;;;8.10;4.22;;;;;;;5.86;100.00;100332.88;4992080;28;20057;-62
2022/12/30 09:35:32;;;;;;;6.00;3.22;;;;;;;5.77;100.00;100327.81;4992264;28;20061;-62
2022/12/30 09:37:58;;;;;;;10.75;4.00;;;;;;;5.13;100.00;100229.09;4991567;28;20041;-61
2022/12/30 09:40:52;;;;;;;8.65;3.88;;;;;;;5.78;100.00;100292.97;5007517;28;20060;-62
2022/12/30 09:43:40;;;;;;;10.85;3.38;;;;;;;5.90;100.00;100310.16;5008535;28;20129;-61
2022/12/30 09:46:24;;;;;;;10.57;3.90;;;;;;;5.88;100.00;100304.09;4952511;28;20042;-62
2022/12/30 09:48:57;;;;;;;14.00;5.40;;;;;;;5.43;100.00;100214.56;4974541;28;20100;-61
2022/12/30 09:51:27;;;;;;;9.20;3.83;;;;;;;4.77;100.00;100102.03;4959124;28;20069;-62
2022/12/30 09:53:55;;;;;;;8.48;3.88;;;;;;;5.99;100.00;100291.66;4974633;28;20042;-63
2022/12/30 09:56:33;;;;;;;8.25;3.30;;;;;;;5.97;100.00;100293.47;4974277;28;20095;-62
2022/12/30 09:59:03;;;;;;;13.30;3.67;;;;;;;5.86;100.00;100279.78;4974659;28;20941;-61
2022/12/30 10:01:41;;;;;;;9.90;3.85;;;;;;;5.52;100.00;100212.59;4961494;28;20035;-62
2022/12/30 10:04:17;;;;;;;10.90;3.25;;;;;;;6.01;100.00;100289.91;4995210;28;20062;-63
2022/12/30 10:06:53;;;;;;;7.60;3.00;;;;;;;6.04;100.00;100275.00;4978576;28;20165;-63
2022/12/30 10:09:21;;;;;;;8.55;3.13;;;;;;;5.59;100.00;100180.25;4979039;28;20034;-62
2022/12/30 10:11:54;;;;;;;7.93;3.00;;;;;;;6.07;100.00;100251.41;4995432;28;20070;-62
2022/12/30 10:14:31;;;;;;;5.13;3.08;;;;;;;6.11;100.00;100247.84;4978034;28;20038;-61
2022/12/30 10:16:57;;;;;;;6.28;3.30;;;;;;;5.71;100.00;100170.41;4994938;28;20061;-62
2022/12/30 10:19:28;;;;;;;8.52;3.22;;;;;;;6.14;100.00;100241.69;5009164;28;20117;-61
2022/12/30 10:21:55;;;;;;;;;;;;;;;6.14;100.00;100228.63;4995780;28;20412;-60
2022/12/30 10:24:33;;;;;;;4.20;2.92;;;;;;;6.03;100.00;100197.53;4977682;28;19921;-61
2022/12/30 10:27:02;;;;;;;10.35;2.95;;;;;;;5.71;100.00;100126.03;4995864;28;20033;-60
2022/12/30 10:29:31;;;;;;;6.78;2.75;;;;;;;5.68;100.00;100103.47;4996681;28;20025;-63
2022/12/30 10:31:57;;;;;;;5.68;2.95;;;;;;;6.20;100.00;100184.03;4996476;28;20401;-62
2022/12/30 10:34:30;;;;;;;9.95;3.10;;;;;;;5.82;100.00;100105.72;4997582;28;20037;-62
2022/12/30 10:37:05;;;;;;;6.65;2.50;;;;;;;5.81;100.00;100086.56;5015178;28;20396;-60
2022/12/30 10:39:37;;;;;;;7.07;2.70;;;;;;;5.86;100.00;100081.28;4996379;28;20081;-61
2022/12/30 10:42:17;;;;;;;5.82;2.35;;;;;;;6.28;100.00;100162.94;4996859;28;20030;-60
2022/12/30 10:45:06;;;;;;;5.67;2.77;;;;;;;6.33;100.00;100130.56;5015068;28;20083;-63
2022/12/30 10:47:50;;;;;;;7.30;3.00;;;;;;;6.40;100.00;100118.19;5014621;28;20775;-59
2022/12/30 10:50:37;;;;;;;6.63;2.35;;;;;;;6.43;100.00;100105.03;5014079;28;20026;-63
2022/12/30 10:53:07;;;;;;;10.65;3.72;;;;;;;6.43;100.00;100118.97;4997035;28;20021;-61
2022/12/30 10:55:34;;;;;;;6.50;2.08;;;;;;;6.46;100.00;100086.66;4997177;28;20532;-59
2022/12/30 10:58:05;;;;;;;5.65;2.00;;;;;;;6.46;100.00;100079.66;5014059;28;20029;-62
2022/12/30 11:00:39;;;;;;;6.15;2.33;;;;;;;6.06;100.00;99991.06;4996954;28;20473;-63
2022/12/30 11:03:32;;;;;;;6.85;2.05;;;;;;;6.34;100.00;100022.50;4998214;28;20544;-63
2022/12/30 11:06:17;;;;;;;6.40;2.35;;;;;;;6.54;100.00;100041.09;5013503;28;20073;-61
2022/12/30 11:08:43;;;;;;;9.05;2.00;;;;;;;6.16;100.00;99968.13;5013988;28;20600;-60
2022/12/30 11:11:09;;;;;;;5.90;2.20;;;;;;;6.58;100.00;100020.94;5013516;28;20124;-62
2022/12/30 11:16:27;;;;;;;4.63;1.83;;;;;;;6.22;100.00;99933.97;5013626;28;20088;-59
2022/12/30 11:18:52;;;;;;;6.05;2.13;;;;;;;6.60;100.00;99985.13;4996396;28;20038;-61
2022/12/30 11:21:26;;;;;;;5.50;1.75;;;;;;;6.36;100.00;99944.91;5014030;28;20088;-61
2022/12/30 11:23:56;;;;;;;5.63;2.00;;;;;;;6.76;100.00;99992.50;4996470;28;20037;-61
2022/12/30 11:26:24;;;;;;;5.23;2.30;;;;;;;6.77;100.00;99988.13;4996230;28;20034;-62
2022/12/30 11:28:58;;;;;;;7.68;2.25;;;;;;;6.81;100.00;99966.19;5013422;28;20362;-61
2022/12/30 11:31:36;;;;;;;11.18;2.58;;;;;;;6.71;100.00;99913.28;5013805;28;20056;-61
2022/12/30 11:34:02;;;;;;;8.70;2.65;;;;;;;6.51;100.00;99862.56;4994648;28;20038;-60
2022/12/30 11:36:28;;;;;;;8.65;2.78;;;;;;;6.95;100.00;99945.69;4996460;28;20033;-61
2022/12/30 11:38:55;;;;;;;8.63;2.17;;;;;;;6.83;100.00;99885.91;5029110;28;20049;-60
2022/12/30 11:41:28;;;;;;;5.50;2.47;;;;;;;6.89;100.00;99909.25;5001204;28;20108;-62
2022/12/30 11:43:56;;;;;;;7.43;2.40;;;;;;;7.06;100.00;99903.50;5023273;28;20034;-61
2022/12/30 11:46:22;;;;;;;9.25;2.47;;;;;;;6.58;100.00;99801.31;5026899;28;20034;-62
2022/12/30 11:48:50;;;;;;;7.07;2.00;;;;;;;6.54;100.00;99803.16;5016491;28;20026;-61
2022/12/30 11:51:23;;;;;;;7.72;2.33;;;;;;;6.57;100.00;99781.28;5028002;28;20398;-62
2022/12/30 11:54:02;;;;;;;7.90;2.63;;;;;;;6.47;100.00;99756.38;5004873;28;20504;-62
2022/12/30 11:56:27;;;;;;;9.93;2.75;;;;;;;6.98;100.00;99851.41;5018170;28;20623;-60
2022/12/30 11:58:53;;;;;;;8.65;3.13;;;;;;;6.54;100.00;99750.00;5028181;28;20076;-62
2022/12/30 12:01:18;;;;;;;14.18;5.68;;;;;;;7.00;100.00;99827.81;5017880;28;20072;-63
2022/12/30 12:03:57;;;;;;;9.73;2.40;;;;;;;7.04;100.00;99827.63;5006430;28;20511;-62
2022/12/30 12:06:23;;;;;;;5.28;1.98;;;;;;;7.08;100.00;99828.41;5026876;28;20040;-60
2022/12/30 12:09:02;;;;;;;14.00;2.75;;;;;;;7.11;100.00;99808.22;4998879;28;20067;-61
2022/12/30 12:11:32;;;;;;;11.27;2.30;;;;;;;6.62;100.00;99717.50;5024893;28;20044;-63
2022/12/30 12:14:14;;;;;;;13.20;3.20;;;;;;;7.13;100.00;99793.31;5006161;28;20060;-61
2022/12/30 12:16:48;;;;;;;10.18;3.53;;;;;;;7.18;100.00;99793.16;5016239;28;20034;-61